Time;durP1;ratioP1;P1;durP2;ratioP2;P2;SDS_P1;SDS_P2;PMS_P1;PMS_P2;Temp;Humidity;BMP_temperature;BMP_pressure;BME280_temperature;BME280_humidity;BME280_pressure;Samples;Min_cycle;Max_cycle;Signal;HPM_P1;HPM_P2
2023/04/09 00:01:49;;;;;;;85.18;61.47;;;13.90;79.40;;;;;;4977317;28;90341;-46
2023/04/09 00:04:15;;;;;;;84.90;61.45;;;13.90;79.70;;;;;;4980849;28;90980;-45
2023/04/09 00:06:41;;;;;;;85.95;61.85;;;13.90;79.30;;;;;;4979618;28;90064;-47
2023/04/09 00:09:06;;;;;;;85.30;61.97;;;13.90;79.30;;;;;;4985193;28;89599;-46
2023/04/09 00:11:32;;;;;;;87.40;61.78;;;13.90;79.30;;;;;;4983733;28;89349;-49
2023/04/09 00:13:58;;;;;;;86.03;61.50;;;13.80;79.30;;;;;;4981704;28;90868;-45
2023/04/09 00:16:23;;;;;;;88.70;61.78;;;13.80;79.40;;;;;;4969690;28;89672;-46
2023/04/09 00:18:50;;;;;;;86.18;62.63;;;13.80;79.50;;;;;;4976994;28;91276;-46
2023/04/09 00:21:16;;;;;;;87.65;62.95;;;13.80;79.30;;;;;;4963597;28;88594;-49
2023/04/09 00:23:42;;;;;;;88.13;63.33;;;13.80;79.40;;;;;;4973851;28;90072;-47
2023/04/09 00:26:08;;;;;;;85.82;61.97;;;13.80;79.30;;;;;;4980005;28;90282;-48
2023/04/09 00:28:34;;;;;;;85.75;63.28;;;13.80;79.20;;;;;;4979039;28;96066;-48
2023/04/09 00:31:01;;;;;;;84.85;62.03;;;13.80;79.20;;;;;;4981071;28;89864;-47
2023/04/09 00:33:26;;;;;;;85.63;61.90;;;13.70;79.20;;;;;;4983167;28;89613;-47
2023/04/09 00:35:52;;;;;;;86.65;62.97;;;13.80;79.20;;;;;;4964962;28;90637;-50
2023/04/09 00:38:18;;;;;;;88.65;63.60;;;13.70;79.10;;;;;;4964324;28;90191;-46
2023/04/09 00:40:48;;;;;;;87.07;62.72;;;13.70;79.10;;;;;;4979780;28;89541;-47
2023/04/09 00:43:14;;;;;;;86.70;62.95;;;13.70;79.10;;;;;;4976099;28;91486;-48
2023/04/09 00:45:40;;;;;;;87.00;63.60;;;13.70;79.00;;;;;;4982206;28;90196;-46
2023/04/09 00:48:07;;;;;;;89.93;65.22;;;13.80;78.90;;;;;;4979531;28;89738;-47
2023/04/09 00:50:33;;;;;;;92.40;64.13;;;13.80;79.00;;;;;;4973528;28;91107;-45
2023/04/09 00:52:59;;;;;;;87.88;62.95;;;13.80;78.90;;;;;;4978681;28;90492;-46
2023/04/09 00:55:25;;;;;;;92.75;65.55;;;13.70;78.80;;;;;;4979056;28;90184;-46
2023/04/09 00:57:51;;;;;;;87.35;63.45;;;13.70;79.00;;;;;;4981792;28;89318;-46
2023/04/09 01:00:16;;;;;;;84.47;62.28;;;13.70;78.80;;;;;;4980952;28;89852;-47
2023/04/09 01:02:43;;;;;;;85.38;62.85;;;13.70;78.70;;;;;;4979160;28;90993;-48
2023/04/09 01:05:09;;;;;;;88.60;63.50;;;13.70;78.80;;;;;;4976849;28;90684;-46
2023/04/09 01:08:00;;;;;;;86.28;63.28;;;13.60;78.40;;;;;;4979806;28;89667;-44
2023/04/09 01:10:42;;;;;;;90.60;65.27;;;13.60;78.80;;;;;;4979502;28;89831;-49
2023/04/09 01:13:12;;;;;;;;;;;13.70;78.60;;;;;;4981810;28;91400;-49
2023/04/09 01:15:48;;;;;;;90.75;65.93;;;13.60;78.60;;;;;;4977038;28;89650;-46
2023/04/09 01:18:36;;;;;;;88.45;64.20;;;13.60;78.60;;;;;;4982347;28;90335;-47
2023/04/09 01:21:08;;;;;;;87.25;64.10;;;13.60;78.80;;;;;;4976753;28;91531;-46
2023/04/09 01:23:42;;;;;;;92.85;65.97;;;13.60;78.50;;;;;;4978340;28;89411;-48
2023/04/09 01:26:45;;;;;;;89.53;65.18;;;13.60;78.80;;;;;;4974657;28;89309;-47
2023/04/09 01:29:12;;;;;;;88.75;63.88;;;13.50;78.20;;;;;;4977800;28;89801;-50
2023/04/09 01:31:39;;;;;;;89.78;63.42;;;13.50;78.60;;;;;;4973898;28;89497;-49
2023/04/09 01:34:06;;;;;;;86.72;63.45;;;13.60;78.50;;;;;;4980071;28;91109;-46
2023/04/09 01:36:34;;;;;;;86.78;63.08;;;13.60;78.80;;;;;;4980265;28;89489;-48
2023/04/09 01:39:01;;;;;;;90.35;64.68;;;13.60;78.40;;;;;;4978366;28;89926;-47
2023/04/09 01:41:29;;;;;;;85.10;62.85;;;13.60;78.40;;;;;;4975838;28;89841;-47
2023/04/09 01:43:56;;;;;;;86.57;64.43;;;13.60;78.20;;;;;;4975912;28;90930;-49
2023/04/09 01:46:23;;;;;;;89.28;64.90;;;13.60;78.00;;;;;;4978639;28;89581;-47
2023/04/09 01:48:49;;;;;;;88.60;64.68;;;13.60;78.20;;;;;;4977836;28;89501;-45
2023/04/09 01:51:16;;;;;;;86.22;63.03;;;13.60;78.10;;;;;;4978991;28;89483;-45
2023/04/09 01:53:42;;;;;;;89.90;63.92;;;13.60;78.10;;;;;;4976552;28;90075;-48
2023/04/09 01:56:08;;;;;;;87.43;63.78;;;13.70;77.80;;;;;;4976707;28;89843;-46
2023/04/09 01:58:34;;;;;;;87.80;63.70;;;13.60;77.90;;;;;;4975160;28;89703;-48
2023/04/09 02:01:23;;;;;;;85.65;62.80;;;13.60;77.40;;;;;;4975991;28;89212;-49
2023/04/09 02:04:19;;;;;;;89.72;64.13;;;13.60;77.60;;;;;;4975886;28;89596;-46
2023/04/09 02:07:02;;;;;;;86.65;63.60;;;13.60;77.80;;;;;;4968813;28;89614;-47
2023/04/09 02:09:30;;;;;;;86.47;62.80;;;13.60;77.70;;;;;;4975253;28;90313;-47
2023/04/09 02:12:00;;;;;;;86.60;63.42;;;13.50;78.00;;;;;;4977066;28;89798;-48
2023/04/09 02:14:27;;;;;;;85.78;63.58;;;13.60;77.80;;;;;;4978488;28;89455;-45
2023/04/09 02:16:53;;;;;;;86.45;63.17;;;13.60;77.90;;;;;;4981339;28;89759;-46
2023/04/09 02:19:18;;;;;;;85.72;63.65;;;13.60;77.80;;;;;;4979306;28;89847;-44
2023/04/09 02:21:45;;;;;;;85.82;63.80;;;13.60;77.90;;;;;;4982421;28;90219;-47
2023/04/09 02:24:10;;;;;;;88.07;64.07;;;13.60;77.70;;;;;;4977274;28;89580;-45
2023/04/09 02:26:36;;;;;;;86.03;63.60;;;13.50;77.60;;;;;;4977764;28;89136;-46
2023/04/09 02:29:02;;;;;;;85.97;63.75;;;13.50;77.70;;;;;;4978250;28;93840;-47
2023/04/09 02:31:28;;;;;;;86.75;63.67;;;13.50;77.70;;;;;;4983402;28;89545;-44
2023/04/09 02:33:54;;;;;;;85.63;63.10;;;13.50;77.60;;;;;;4979928;28;90421;-45
2023/04/09 02:36:20;;;;;;;84.60;63.25;;;13.50;77.50;;;;;;4975158;28;90767;-45
2023/04/09 02:38:45;;;;;;;86.97;62.92;;;13.50;77.50;;;;;;4979137;28;89422;-46
2023/04/09 02:41:11;;;;;;;84.18;62.53;;;13.50;77.70;;;;;;4981447;28;90195;-46
2023/04/09 02:43:37;;;;;;;83.53;62.17;;;13.50;77.70;;;;;;4976612;28;90353;-47
2023/04/09 02:46:02;;;;;;;82.13;61.78;;;13.40;77.50;;;;;;4979860;28;91531;-47
2023/04/09 02:48:28;;;;;;;81.90;61.20;;;13.50;77.50;;;;;;4981239;28;90489;-47
2023/04/09 02:50:54;;;;;;;83.97;61.22;;;13.40;77.50;;;;;;4978442;28;90868;-45
2023/04/09 02:53:22;;;;;;;83.45;61.60;;;13.50;77.60;;;;;;4961948;28;90981;-45
2023/04/09 02:55:48;;;;;;;85.13;61.97;;;13.40;77.30;;;;;;4977687;28;89920;-46
2023/04/09 02:58:13;;;;;;;82.18;61.60;;;13.40;77.40;;;;;;4979016;28;90518;-47
2023/04/09 03:00:39;;;;;;;81.45;60.47;;;13.40;77.50;;;;;;4981963;28;89380;-46
2023/04/09 03:03:05;;;;;;;82.50;61.58;;;13.40;77.30;;;;;;4975628;28;91657;-45
2023/04/09 03:05:30;;;;;;;82.22;61.58;;;13.40;77.50;;;;;;4973212;28;94603;-46
2023/04/09 03:07:56;;;;;;;81.90;61.08;;;13.40;77.60;;;;;;4978683;28;91085;-47
2023/04/09 03:10:22;;;;;;;84.10;62.35;;;13.30;77.50;;;;;;4968602;28;89922;-49
2023/04/09 03:12:47;;;;;;;81.10;61.42;;;13.30;77.60;;;;;;4973654;28;89408;-45
2023/04/09 03:15:13;;;;;;;82.78;61.35;;;13.30;77.50;;;;;;4973631;28;88528;-48
2023/04/09 03:17:39;;;;;;;81.57;60.78;;;13.30;77.60;;;;;;4974810;28;89666;-47
2023/04/09 03:20:06;;;;;;;82.03;61.08;;;13.30;77.60;;;;;;4977060;28;89154;-49
2023/04/09 03:22:36;;;;;;;82.28;61.97;;;13.30;77.40;;;;;;4978544;28;96569;-46
2023/04/09 03:25:02;;;;;;;81.88;61.35;;;13.30;77.40;;;;;;4978539;28;90559;-46
2023/04/09 03:27:28;;;;;;;80.55;60.40;;;13.40;78.10;;;;;;4979506;28;89240;-45
2023/04/09 03:29:57;;;;;;;81.70;61.13;;;13.30;77.10;;;;;;4972579;28;89579;-46
2023/04/09 03:32:23;;;;;;;80.53;60.25;;;13.40;77.30;;;;;;4975509;28;89471;-47
2023/04/09 03:34:48;;;;;;;80.38;60.33;;;13.30;77.30;;;;;;4972457;28;91015;-46
2023/04/09 03:37:14;;;;;;;80.13;60.15;;;13.30;77.30;;;;;;4978088;28;89899;-49
2023/04/09 03:39:40;;;;;;;80.22;59.92;;;13.30;77.10;;;;;;4981791;28;89124;-45
2023/04/09 03:42:06;;;;;;;79.88;60.22;;;13.30;77.10;;;;;;4970949;28;88960;-47
2023/04/09 03:44:32;;;;;;;80.15;59.97;;;13.30;77.10;;;;;;4977745;28;90341;-44
2023/04/09 03:46:57;;;;;;;80.95;60.45;;;13.20;77.10;;;;;;4982050;28;91948;-46
2023/04/09 03:49:23;;;;;;;79.10;59.67;;;13.20;77.00;;;;;;4968670;28;89207;-45
2023/04/09 03:51:49;;;;;;;79.40;59.97;;;13.20;77.10;;;;;;4971243;28;95372;-45
2023/04/09 03:54:14;;;;;;;80.00;60.72;;;13.20;77.20;;;;;;4979516;28;89872;-46
2023/04/09 03:56:40;;;;;;;78.35;59.38;;;13.20;77.20;;;;;;4982566;28;89577;-46
2023/04/09 03:59:06;;;;;;;78.78;58.67;;;13.20;77.40;;;;;;4956998;28;89814;-47
2023/04/09 04:01:32;;;;;;;79.50;59.50;;;13.20;77.20;;;;;;4967500;28;95279;-46
2023/04/09 04:03:57;;;;;;;79.47;59.65;;;13.10;77.00;;;;;;4976398;28;89837;-48
2023/04/09 04:06:23;;;;;;;79.55;59.53;;;13.10;77.10;;;;;;4967620;28;89974;-45
2023/04/09 04:08:48;;;;;;;79.20;59.67;;;13.00;77.30;;;;;;4973065;28;95059;-50
2023/04/09 04:11:14;;;;;;;76.35;58.10;;;12.90;77.60;;;;;;4969870;28;90698;-44
2023/04/09 04:13:40;;;;;;;76.07;58.30;;;13.00;77.70;;;;;;4974309;28;90547;-44
2023/04/09 04:16:07;;;;;;;78.18;58.80;;;13.00;77.50;;;;;;4974451;28;89484;-48
2023/04/09 04:18:33;;;;;;;77.32;58.08;;;13.10;77.10;;;;;;4973483;28;89995;-46
2023/04/09 04:20:59;;;;;;;77.28;58.78;;;13.00;77.30;;;;;;4968781;28;89395;-47
2023/04/09 04:23:25;;;;;;;76.95;58.53;;;13.10;77.50;;;;;;4972864;28;91847;-50
2023/04/09 04:25:51;;;;;;;77.28;58.40;;;13.00;77.90;;;;;;4971330;28;90244;-49
2023/04/09 04:28:17;;;;;;;76.25;58.10;;;13.10;77.40;;;;;;4971732;28;88577;-46
2023/04/09 04:30:43;;;;;;;77.78;58.95;;;13.10;76.90;;;;;;4953498;28;90029;-45
2023/04/09 04:33:09;;;;;;;74.78;57.30;;;13.10;77.20;;;;;;4967690;28;91437;-47
2023/04/09 04:35:35;;;;;;;74.57;57.35;;;13.10;77.10;;;;;;4967490;28;91110;-48
2023/04/09 04:38:01;;;;;;;75.72;57.30;;;13.10;77.10;;;;;;4973904;28;89243;-48
2023/04/09 04:40:26;;;;;;;75.45;57.42;;;13.00;76.90;;;;;;4981605;28;90197;-48
2023/04/09 04:42:52;;;;;;;76.45;58.35;;;13.00;77.20;;;;;;4977232;28;89469;-47
2023/04/09 04:45:18;;;;;;;75.38;57.83;;;13.00;77.20;;;;;;4960606;28;89545;-48
2023/04/09 04:47:44;;;;;;;76.10;57.70;;;13.00;77.10;;;;;;4979066;28;89636;-47
2023/04/09 04:50:09;;;;;;;76.18;57.53;;;13.00;77.30;;;;;;4976128;28;89326;-46
2023/04/09 04:52:35;;;;;;;75.72;57.50;;;13.10;77.30;;;;;;4961237;28;89321;-46
2023/04/09 04:55:01;;;;;;;74.43;57.05;;;13.10;76.80;;;;;;4983421;28;90023;-45
2023/04/09 04:57:27;;;;;;;74.72;57.35;;;12.90;77.30;;;;;;4979659;28;89262;-44
2023/04/09 04:59:53;;;;;;;76.03;57.67;;;12.90;77.50;;;;;;4979005;28;91622;-49
2023/04/09 05:02:18;;;;;;;73.53;56.08;;;12.90;77.60;;;;;;4975592;28;89910;-46
2023/04/09 05:04:44;;;;;;;74.05;57.13;;;12.80;77.70;;;;;;4952446;28;91873;-48
2023/04/09 05:07:09;;;;;;;74.13;56.85;;;12.80;77.90;;;;;;4974484;28;90441;-47
2023/04/09 05:09:35;;;;;;;75.13;57.25;;;12.90;77.20;;;;;;4965389;28;92724;-45
2023/04/09 05:12:01;;;;;;;74.72;56.78;;;12.90;77.20;;;;;;4980299;28;89875;-47
2023/04/09 05:14:27;;;;;;;74.53;57.55;;;12.90;77.20;;;;;;4959997;28;89294;-47
2023/04/09 05:16:52;;;;;;;75.22;57.17;;;12.90;77.10;;;;;;4979564;28;88925;-47
2023/04/09 05:19:18;;;;;;;75.47;56.83;;;12.90;77.10;;;;;;4980159;28;89188;-46
2023/04/09 05:21:44;;;;;;;73.10;55.80;;;12.90;76.70;;;;;;4973324;28;89976;-46
2023/04/09 05:24:10;;;;;;;74.18;56.45;;;12.90;76.70;;;;;;4976920;28;90098;-47
2023/04/09 05:26:35;;;;;;;73.60;56.88;;;12.90;76.90;;;;;;4981599;28;89655;-46
2023/04/09 05:29:01;;;;;;;74.13;56.90;;;12.80;76.70;;;;;;4976127;28;90374;-48
2023/04/09 05:31:27;;;;;;;73.43;56.42;;;12.90;77.10;;;;;;4982846;28;89533;-47
2023/04/09 05:33:52;;;;;;;73.90;56.40;;;12.90;76.60;;;;;;4981748;28;89137;-45
2023/04/09 05:36:18;;;;;;;73.15;55.97;;;12.90;76.70;;;;;;4979802;28;89589;-46
2023/04/09 05:38:46;;;;;;;74.22;55.90;;;12.90;76.70;;;;;;4978541;28;89431;-50
2023/04/09 05:41:12;;;;;;;73.90;56.25;;;12.80;76.50;;;;;;4979336;28;89777;-48
2023/04/09 05:43:38;;;;;;;72.28;55.38;;;12.90;76.70;;;;;;4976726;28;89405;-46
2023/04/09 05:46:04;;;;;;;73.10;56.03;;;12.90;76.30;;;;;;4977798;28;95236;-44
2023/04/09 05:48:30;;;;;;;73.22;56.35;;;12.80;76.50;;;;;;4979595;28;90510;-46
2023/04/09 05:50:55;;;;;;;74.10;56.40;;;12.90;76.80;;;;;;4980414;28;89913;-44
2023/04/09 05:53:21;;;;;;;73.32;56.03;;;12.90;76.40;;;;;;4982702;28;94391;-47
2023/04/09 05:55:50;;;;;;;72.38;55.67;;;12.90;76.30;;;;;;4982328;28;89198;-45
2023/04/09 05:58:17;;;;;;;72.22;55.92;;;12.90;76.00;;;;;;4987109;28;89761;-49
2023/04/09 06:00:43;;;;;;;74.07;56.13;;;12.90;76.10;;;;;;4981882;28;89318;-49
2023/04/09 06:03:09;;;;;;;73.70;56.70;;;12.90;76.00;;;;;;4978054;28;89123;-49
2023/04/09 06:05:35;;;;;;;71.93;55.42;;;12.90;76.00;;;;;;4985447;28;88629;-50
2023/04/09 06:08:01;;;;;;;72.15;55.38;;;12.90;76.30;;;;;;4983030;28;89989;-49
2023/04/09 06:10:26;;;;;;;73.50;55.88;;;12.90;75.90;;;;;;4981229;28;89795;-51
2023/04/09 06:12:52;;;;;;;72.78;55.33;;;12.90;75.90;;;;;;4979373;28;90757;-46
2023/04/09 06:15:18;;;;;;;72.43;55.63;;;12.90;76.00;;;;;;4983624;28;89396;-47
2023/04/09 06:17:44;;;;;;;74.75;54.95;;;12.90;75.90;;;;;;4983405;28;92300;-50
2023/04/09 06:20:10;;;;;;;70.93;55.33;;;12.90;75.70;;;;;;4975989;28;90500;-45
2023/04/09 06:22:36;;;;;;;72.78;55.38;;;13.00;75.90;;;;;;4985404;28;89721;-46
2023/04/09 06:25:02;;;;;;;72.68;55.08;;;12.90;75.70;;;;;;4983002;28;90421;-51
2023/04/09 06:27:27;;;;;;;74.47;55.08;;;13.00;76.00;;;;;;4982207;28;89729;-47
2023/04/09 06:29:53;;;;;;;73.75;55.58;;;13.00;75.90;;;;;;4980056;28;89777;-47
2023/04/09 06:32:19;;;;;;;71.57;55.13;;;12.90;75.80;;;;;;4981428;28;89389;-47
2023/04/09 06:34:45;;;;;;;76.32;55.63;;;12.90;75.90;;;;;;4981382;28;89228;-45
2023/04/09 06:37:10;;;;;;;78.22;55.13;;;12.90;75.70;;;;;;4984881;28;90788;-47
2023/04/09 06:39:36;;;;;;;72.60;54.90;;;12.90;75.90;;;;;;4979191;28;90214;-48
2023/04/09 06:42:02;;;;;;;74.28;55.28;;;12.90;75.90;;;;;;4984007;28;89535;-49
2023/04/09 06:44:29;;;;;;;71.32;54.70;;;12.90;75.80;;;;;;4981492;28;89560;-46
2023/04/09 06:46:55;;;;;;;72.63;55.70;;;12.90;75.80;;;;;;4976456;28;89857;-49
2023/04/09 06:49:21;;;;;;;71.65;55.60;;;12.90;75.60;;;;;;4968126;28;90962;-49
2023/04/09 06:51:46;;;;;;;71.63;54.50;;;12.90;75.80;;;;;;4979853;28;89544;-46
2023/04/09 06:54:12;;;;;;;72.45;54.13;;;12.90;75.70;;;;;;4980000;28;88595;-46
2023/04/09 06:56:38;;;;;;;80.90;54.97;;;13.00;76.50;;;;;;4979428;28;90013;-47
2023/04/09 06:59:04;;;;;;;72.80;55.22;;;13.00;75.70;;;;;;4978453;28;89617;-48
2023/04/09 07:01:30;;;;;;;71.00;54.58;;;13.10;75.40;;;;;;4979420;28;91184;-48
2023/04/09 07:03:56;;;;;;;72.78;55.15;;;13.10;75.30;;;;;;4977990;28;89634;-46
2023/04/09 07:06:22;;;;;;;73.20;54.88;;;13.20;75.40;;;;;;4979397;28;89685;-45
2023/04/09 07:08:47;;;;;;;72.15;54.45;;;13.20;75.10;;;;;;4982203;28;89744;-50
2023/04/09 07:11:15;;;;;;;71.80;54.92;;;13.20;75.20;;;;;;4981244;28;89694;-48
2023/04/09 07:13:42;;;;;;;73.07;55.75;;;13.20;74.90;;;;;;4984385;28;89595;-48
2023/04/09 07:16:07;;;;;;;73.55;55.95;;;13.20;74.80;;;;;;4976668;28;90298;-47
2023/04/09 07:18:33;;;;;;;72.88;55.28;;;13.30;74.60;;;;;;4981269;28;88960;-48
2023/04/09 07:20:58;;;;;;;72.68;55.20;;;13.30;74.60;;;;;;4966912;28;89735;-46
2023/04/09 07:23:24;;;;;;;72.28;55.30;;;13.30;74.40;;;;;;4969445;28;89982;-47
2023/04/09 07:25:50;;;;;;;72.93;55.05;;;13.30;74.40;;;;;;4967800;28;96444;-46
2023/04/09 07:28:16;;;;;;;73.18;55.47;;;13.40;74.40;;;;;;4977316;28;91383;-46
2023/04/09 07:30:41;;;;;;;73.63;55.30;;;13.40;74.30;;;;;;4975560;28;90601;-47
2023/04/09 07:33:07;;;;;;;73.22;55.72;;;13.40;74.10;;;;;;4974609;28;90094;-46
2023/04/09 07:35:33;;;;;;;72.78;54.75;;;13.40;74.10;;;;;;4967452;28;90432;-47
2023/04/09 07:37:59;;;;;;;73.15;54.85;;;13.40;73.80;;;;;;4965252;28;90407;-46
2023/04/09 07:40:25;;;;;;;75.13;56.08;;;13.40;74.10;;;;;;4969039;28;89267;-48
2023/04/09 07:42:52;;;;;;;73.53;54.50;;;13.40;74.20;;;;;;4975508;28;88840;-46
2023/04/09 07:45:18;;;;;;;74.82;55.75;;;13.40;74.40;;;;;;4979715;28;89313;-47
2023/04/09 07:47:44;;;;;;;77.47;55.80;;;13.50;74.40;;;;;;4949547;28;90693;-46
2023/04/09 07:50:10;;;;;;;77.03;55.67;;;13.50;74.40;;;;;;4969148;28;91318;-45
2023/04/09 07:52:36;;;;;;;73.47;54.10;;;13.50;74.50;;;;;;4973218;28;89669;-48
2023/04/09 07:55:02;;;;;;;74.63;55.08;;;13.50;74.60;;;;;;4980545;28;89630;-46
2023/04/09 07:57:31;;;;;;;72.65;54.63;;;13.50;74.60;;;;;;4980420;28;90772;-47
2023/04/09 07:59:57;;;;;;;74.88;55.35;;;13.50;74.30;;;;;;4959515;28;89841;-49
2023/04/09 08:02:23;;;;;;;73.72;55.55;;;13.50;74.30;;;;;;4972938;28;90783;-48
2023/04/09 08:04:49;;;;;;;74.32;55.22;;;13.50;74.20;;;;;;4971820;28;91184;-48
2023/04/09 08:07:15;;;;;;;72.45;54.38;;;13.60;74.50;;;;;;4967654;28;89584;-47
2023/04/09 08:09:40;;;;;;;74.65;55.45;;;13.60;74.50;;;;;;4968414;28;90788;-49
2023/04/09 08:12:06;;;;;;;73.25;55.30;;;13.60;74.40;;;;;;4974718;28;89898;-50
2023/04/09 08:14:32;;;;;;;75.30;55.58;;;13.60;74.40;;;;;;4976343;28;91207;-52
2023/04/09 08:16:59;;;;;;;74.75;55.40;;;13.70;74.90;;;;;;4980274;28;90546;-49
2023/04/09 08:19:24;;;;;;;76.30;55.83;;;13.70;74.90;;;;;;4966686;28;90062;-51
2023/04/09 08:21:51;;;;;;;76.40;55.33;;;13.70;75.20;;;;;;4978049;28;89757;-50
2023/04/09 08:24:17;;;;;;;74.30;55.05;;;13.70;75.40;;;;;;4974651;28;89397;-52
2023/04/09 08:26:43;;;;;;;77.88;55.45;;;13.70;75.60;;;;;;4972998;28;90592;-51
2023/04/09 08:29:11;;;;;;;77.20;56.10;;;13.80;75.80;;;;;;4954991;28;89697;-51
2023/04/09 08:31:36;;;;;;;76.97;55.13;;;13.80;75.90;;;;;;4978926;28;88748;-53
2023/04/09 08:34:03;;;;;;;76.22;55.35;;;13.80;76.30;;;;;;4971903;28;89895;-54
2023/04/09 08:36:28;;;;;;;85.15;58.25;;;13.80;76.60;;;;;;4967168;28;91201;-51
2023/04/09 08:38:55;;;;;;;77.53;56.22;;;13.80;76.50;;;;;;4971275;28;91396;-53
2023/04/09 08:41:24;;;;;;;77.10;55.58;;;13.90;77.10;;;;;;4967973;28;89354;-51
2023/04/09 08:43:52;;;;;;;75.05;55.50;;;13.90;76.90;;;;;;4979064;28;89849;-51
2023/04/09 08:46:18;;;;;;;75.03;55.97;;;13.90;76.80;;;;;;4978354;28;89432;-54
2023/04/09 08:48:48;;;;;;;75.63;56.25;;;13.90;77.00;;;;;;4978160;28;90701;-52
2023/04/09 08:51:19;;;;;;;76.75;56.22;;;13.90;76.70;;;;;;4959753;28;89383;-53
2023/04/09 08:53:46;;;;;;;;;;;13.90;76.60;;;;;;4970215;28;89739;-52
2023/04/09 08:56:15;;;;;;;78.43;56.35;;;14.00;76.60;;;;;;4977281;28;89807;-50
2023/04/09 08:58:45;;;;;;;78.00;56.78;;;14.00;76.60;;;;;;4972325;28;89850;-53
2023/04/09 09:01:25;;;;;;;75.70;55.88;;;14.00;76.90;;;;;;4954915;28;89789;-52
2023/04/09 09:03:54;;;;;;;81.32;56.85;;;14.10;76.80;;;;;;4976195;28;90679;-52
2023/04/09 09:06:21;;;;;;;76.95;56.17;;;14.10;77.00;;;;;;4968885;28;90112;-45
2023/04/09 09:09:09;;;;;;;80.03;56.67;;;14.10;76.90;;;;;;4969563;28;89177;-66
2023/04/09 09:11:40;;;;;;;79.53;55.95;;;14.20;77.50;;;;;;4977775;28;93941;-62
2023/04/09 09:14:08;;;;;;;80.28;56.50;;;14.30;77.80;;;;;;4978081;28;89972;-54
2023/04/09 09:16:38;;;;;;;81.63;56.08;;;14.40;78.30;;;;;;4967915;28;90346;-55
2023/04/09 09:19:05;;;;;;;80.57;57.63;;;14.50;78.60;;;;;;4960263;28;88780;-52
2023/04/09 09:21:32;;;;;;;81.55;56.60;;;14.50;78.20;;;;;;4959523;28;89262;-51
2023/04/09 09:23:57;;;;;;;84.28;56.85;;;14.40;78.80;;;;;;4963257;28;92990;-53
2023/04/09 09:26:26;;;;;;;82.10;56.33;;;14.40;78.70;;;;;;4982825;28;89925;-55
2023/04/09 09:28:52;;;;;;;82.75;56.67;;;14.50;78.50;;;;;;4982747;28;91638;-54
2023/04/09 09:31:19;;;;;;;83.00;57.38;;;14.50;78.40;;;;;;4982493;28;89015;-53
2023/04/09 09:33:47;;;;;;;85.15;57.95;;;14.50;78.20;;;;;;4983193;28;89520;-53
2023/04/09 09:36:14;;;;;;;86.45;57.22;;;14.60;77.90;;;;;;4981467;28;89349;-56
2023/04/09 09:38:57;;;;;;;84.55;56.53;;;14.60;77.70;;;;;;4983188;28;89135;-53
2023/04/09 09:41:23;;;;;;;83.03;57.13;;;14.70;77.40;;;;;;4980272;28;89037;-54
2023/04/09 09:43:50;;;;;;;80.57;56.55;;;14.70;77.50;;;;;;4979766;28;90737;-54
2023/04/09 09:46:16;;;;;;;82.07;56.95;;;14.70;77.20;;;;;;4977989;28;88496;-51
2023/04/09 09:48:45;;;;;;;81.82;56.47;;;14.70;77.10;;;;;;4982832;28;88715;-53
2023/04/09 09:51:11;;;;;;;81.22;56.78;;;14.70;77.20;;;;;;4980754;28;89582;-54
2023/04/09 09:53:38;;;;;;;82.72;56.00;;;14.80;77.10;;;;;;4983417;28;90822;-51
2023/04/09 09:56:05;;;;;;;84.05;56.03;;;14.80;77.10;;;;;;4983300;28;90518;-50
2023/04/09 09:58:39;;;;;;;83.65;56.58;;;14.80;76.90;;;;;;4966269;28;89522;-54
2023/04/09 10:01:11;;;;;;;78.75;55.58;;;14.80;76.80;;;;;;4983534;28;88912;-51
2023/04/09 10:03:38;;;;;;;78.88;55.40;;;14.90;76.80;;;;;;4983762;28;89299;-54
2023/04/09 10:06:08;;;;;;;84.70;56.22;;;14.90;76.80;;;;;;4979119;28;90845;-53
2023/04/09 10:08:36;;;;;;;79.80;55.80;;;14.90;76.70;;;;;;4983022;28;89422;-52
2023/04/09 10:11:04;;;;;;;83.15;56.45;;;14.90;76.60;;;;;;4982367;28;88810;-54
2023/04/09 10:13:45;;;;;;;80.88;56.13;;;15.00;76.60;;;;;;4984215;28;89313;-54
2023/04/09 10:16:11;;;;;;;82.00;55.78;;;15.00;76.40;;;;;;4980220;28;89231;-52
2023/04/09 10:18:37;;;;;;;81.00;56.20;;;15.00;76.60;;;;;;4979579;28;91150;-56
2023/04/09 10:21:32;;;;;;;83.43;56.15;;;15.00;76.20;;;;;;4977696;28;89961;-55
2023/04/09 10:23:59;;;;;;;82.22;56.50;;;15.00;76.10;;;;;;4975979;28;89741;-51
2023/04/09 10:26:29;;;;;;;82.07;56.17;;;15.10;76.40;;;;;;4984766;28;89510;-53
2023/04/09 10:29:12;;;;;;;80.53;55.80;;;15.10;76.20;;;;;;4984753;28;89035;-53
2023/04/09 10:32:02;;;;;;;79.80;55.55;;;15.20;76.20;;;;;;4978286;28;89219;-54
2023/04/09 10:34:28;;;;;;;80.80;55.63;;;15.20;76.20;;;;;;4983088;28;89700;-54
2023/04/09 10:36:58;;;;;;;81.38;55.60;;;15.30;76.10;;;;;;4980973;28;89400;-56
2023/04/09 10:39:29;;;;;;;80.65;55.83;;;15.30;76.10;;;;;;4980505;28;89222;-54
2023/04/09 10:41:56;;;;;;;80.95;55.42;;;15.30;76.10;;;;;;4979427;28;90423;-55
2023/04/09 10:44:25;;;;;;;79.70;55.28;;;15.30;76.00;;;;;;4975979;28;90500;-53
2023/04/09 10:46:55;;;;;;;78.22;55.38;;;15.40;76.00;;;;;;4973781;28;91328;-55
2023/04/09 10:49:23;;;;;;;83.25;55.70;;;15.40;75.90;;;;;;4959051;28;89883;-58
2023/04/09 10:52:10;;;;;;;83.40;56.88;;;15.40;75.60;;;;;;4946145;28;89901;-63
2023/04/09 10:54:44;;;;;;;85.80;59.15;;;15.60;74.90;;;;;;4958892;28;90377;-61
2023/04/09 10:57:18;;;;;;;86.25;59.58;;;15.60;73.70;;;;;;4969898;28;90488;-60
2023/04/09 10:59:54;;;;;;;86.97;59.00;;;15.70;73.50;;;;;;4972102;28;92011;-54
2023/04/09 11:02:29;;;;;;;85.60;59.90;;;15.70;73.90;;;;;;4977498;28;88443;-56
2023/04/09 11:05:13;;;;;;;91.07;59.65;;;15.80;73.70;;;;;;4980651;28;90538;-56
2023/04/09 11:07:42;;;;;;;91.80;59.58;;;15.80;73.60;;;;;;4972316;28;89773;-58
2023/04/09 11:10:08;;;;;;;85.15;59.55;;;15.80;73.30;;;;;;4956195;28;91968;-58
2023/04/09 11:12:34;;;;;;;87.47;59.42;;;15.90;73.20;;;;;;4978742;28;88770;-60
2023/04/09 11:15:00;;;;;;;88.82;59.65;;;15.90;73.40;;;;;;4977754;28;89815;-60
2023/04/09 11:17:26;;;;;;;85.05;59.72;;;16.00;73.70;;;;;;4978241;28;90140;-62
2023/04/09 11:19:52;;;;;;;90.78;60.53;;;16.10;73.10;;;;;;4974055;28;90869;-60
2023/04/09 11:22:18;;;;;;;95.15;60.10;;;16.10;74.10;;;;;;4975478;28;90232;-60
2023/04/09 11:24:49;;;;;;;94.82;60.35;;;16.10;74.60;;;;;;4975771;28;93767;-60
2023/04/09 11:27:18;;;;;;;;;;;16.10;74.60;;;;;;4955865;28;91106;-62
2023/04/09 11:29:44;;;;;;;87.00;59.58;;;16.20;74.70;;;;;;4978630;28;88911;-60
2023/04/09 11:32:11;;;;;;;88.93;59.15;;;16.20;74.80;;;;;;4977854;28;89291;-61
2023/04/09 11:34:37;;;;;;;90.07;60.47;;;16.20;74.60;;;;;;4978702;28;90828;-61
2023/04/09 11:37:07;;;;;;;89.47;60.30;;;16.20;74.50;;;;;;4978551;28;89418;-61
2023/04/09 11:39:36;;;;;;;95.00;59.95;;;16.30;75.10;;;;;;4974464;28;89786;-61
2023/04/09 11:42:02;;;;;;;86.70;60.17;;;16.30;75.00;;;;;;4975298;28;90215;-59
2023/04/09 11:44:29;;;;;;;90.28;59.83;;;16.30;74.70;;;;;;4983763;28;89296;-61
2023/04/09 11:46:56;;;;;;;96.72;59.90;;;16.30;75.00;;;;;;4972160;28;90761;-60
2023/04/09 11:49:22;;;;;;;90.65;60.63;;;16.40;74.90;;;;;;4972158;28;89632;-60
2023/04/09 11:51:48;;;;;;;93.03;62.67;;;16.40;74.10;;;;;;4957127;28;88784;-60
2023/04/09 11:54:14;;;;;;;86.82;59.03;;;16.40;72.90;;;;;;4976045;28;91776;-60
2023/04/09 11:56:40;;;;;;;95.05;61.47;;;16.40;72.10;;;;;;4968914;28;90536;-60
2023/04/09 11:59:05;;;;;;;99.72;61.78;;;16.40;72.20;;;;;;4973449;28;90367;-61
2023/04/09 12:01:32;;;;;;;94.72;61.20;;;16.50;73.40;;;;;;4975921;28;90791;-57
2023/04/09 12:03:58;;;;;;;96.55;61.20;;;16.50;73.40;;;;;;4975232;28;89450;-61
2023/04/09 12:06:25;;;;;;;87.50;59.00;;;16.60;73.00;;;;;;4970140;28;90213;-58
2023/04/09 12:08:55;;;;;;;91.10;60.40;;;16.60;72.50;;;;;;4967745;28;89759;-58
2023/04/09 12:11:30;;;;;;;90.60;60.00;;;16.60;73.00;;;;;;4976051;28;89480;-61
2023/04/09 12:14:02;;;;;;;92.28;60.40;;;16.60;72.70;;;;;;4976005;28;90736;-60
2023/04/09 12:16:33;;;;;;;90.43;60.20;;;16.70;72.00;;;;;;4973691;28;88972;-60
2023/04/09 12:19:09;;;;;;;91.95;60.67;;;16.70;71.20;;;;;;4974602;28;94821;-60
2023/04/09 12:21:57;;;;;;;87.18;61.25;;;16.70;70.70;;;;;;4971416;28;91881;-60
2023/04/09 12:24:24;;;;;;;88.80;60.85;;;16.70;70.20;;;;;;4968119;28;97008;-59
2023/04/09 12:26:50;;;;;;;89.47;61.15;;;16.80;69.90;;;;;;4976781;28;91118;-56
2023/04/09 12:29:18;;;;;;;90.97;61.83;;;16.70;69.30;;;;;;4960492;28;89275;-57
2023/04/09 12:31:45;;;;;;;92.28;62.08;;;16.80;69.10;;;;;;4974056;28;89378;-60